createdAt,value
2023-04-06T00:00:14.261Z,3.45
2023-04-06T00:02:41.406Z,3.80
2023-04-06T00:05:08.777Z,3.07
2023-04-06T00:07:36.014Z,3.67
2023-04-06T00:10:04.298Z,3.67
2023-04-06T00:12:31.358Z,2.97
2023-04-06T00:14:59.447Z,2.92
2023-04-06T00:17:26.482Z,3.17
2023-04-06T00:19:53.701Z,3.15
2023-04-06T00:22:20.746Z,2.55
2023-04-06T00:24:47.779Z,3.10
2023-04-06T00:27:14.800Z,3.47
2023-04-06T00:29:41.902Z,2.67
2023-04-06T00:32:09.287Z,3.33
2023-04-06T00:34:36.294Z,3.60
2023-04-06T00:37:03.431Z,2.83
2023-04-06T00:39:30.544Z,3.17
2023-04-06T00:41:58.239Z,3.50
2023-04-06T00:44:25.912Z,3.03
2023-04-06T00:46:52.877Z,3.20
2023-04-06T00:49:20.063Z,3.97
2023-04-06T00:51:47.143Z,3.13
2023-04-06T00:54:15.703Z,2.63
2023-04-06T00:56:44.355Z,3.73
2023-04-06T00:59:12.822Z,2.40
2023-04-06T01:01:41.043Z,3.03
2023-04-06T01:04:26.192Z,4.60
2023-04-06T01:06:54.454Z,3.47
2023-04-06T01:09:30.787Z,3.17
2023-04-06T01:12:00.288Z,3.73
2023-04-06T01:14:31.666Z,2.87
2023-04-06T01:17:01.752Z,4.50
2023-04-06T01:19:32.215Z,5.17
2023-04-06T01:21:59.975Z,3.00
2023-04-06T01:24:34.247Z,3.10
2023-04-06T01:27:02.221Z,3.57
2023-04-06T01:29:38.173Z,3.80
2023-04-06T01:32:09.325Z,3.83
2023-04-06T01:34:48.426Z,3.90
2023-04-06T01:37:15.701Z,3.13
2023-04-06T01:39:43.932Z,3.60
2023-04-06T01:42:14.837Z,3.03
2023-04-06T01:44:41.939Z,2.97
2023-04-06T01:47:13.873Z,4.07
2023-04-06T01:49:41.082Z,3.23
2023-04-06T01:52:09.204Z,5.60
2023-04-06T01:54:38.916Z,2.43
2023-04-06T01:57:17.936Z,3.38
2023-04-06T01:59:49.750Z,3.90
2023-04-06T02:02:25.579Z,3.07
2023-04-06T02:05:01.984Z,2.87
2023-04-06T02:07:29.820Z,5.07
2023-04-06T02:09:57.895Z,4.07
2023-04-06T02:12:33.936Z,3.33
2023-04-06T02:15:01.595Z,2.85
2023-04-06T02:17:28.792Z,4.30
2023-04-06T02:19:55.940Z,3.67
2023-04-06T02:22:22.991Z,3.60
2023-04-06T02:24:52.354Z,3.93
2023-04-06T02:27:19.634Z,3.43
2023-04-06T02:29:50.052Z,2.85
2023-04-06T02:32:21.053Z,3.55
2023-04-06T02:34:49.103Z,3.77
2023-04-06T02:37:18.684Z,3.60
2023-04-06T02:39:46.261Z,3.77
2023-04-06T02:42:13.480Z,2.57
2023-04-06T02:44:40.914Z,2.90
2023-04-06T02:47:09.610Z,2.90
2023-04-06T02:49:38.705Z,3.60
2023-04-06T02:52:05.777Z,3.03
2023-04-06T02:54:35.813Z,3.27
2023-04-06T02:57:04.174Z,3.00
2023-04-06T02:59:38.206Z,2.13
2023-04-06T03:02:14.325Z,3.17
2023-04-06T03:04:42.073Z,2.80
2023-04-06T03:07:18.447Z,2.30
2023-04-06T03:09:46.401Z,4.73
2023-04-06T03:12:13.479Z,2.67
2023-04-06T03:14:58.992Z,5.27
2023-04-06T03:17:27.153Z,2.83
2023-04-06T03:20:02.021Z,4.53
2023-04-06T03:22:31.426Z,3.40
2023-04-06T03:24:58.611Z,4.77
2023-04-06T03:27:26.435Z,3.10
2023-04-06T03:29:54.089Z,3.10
2023-04-06T03:32:27.357Z,3.93
2023-04-06T03:34:54.459Z,4.43
2023-04-06T03:37:21.661Z,3.37
2023-04-06T03:39:53.660Z,3.75
2023-04-06T03:42:24.023Z,3.10
2023-04-06T03:44:59.879Z,3.35
2023-04-06T03:47:27.821Z,3.13
2023-04-06T03:49:59.363Z,3.63
2023-04-06T03:52:27.269Z,3.40
2023-04-06T03:54:54.675Z,6.40
2023-04-06T03:57:21.704Z,3.63
2023-04-06T03:59:48.799Z,2.87
2023-04-06T04:02:15.874Z,3.37
2023-04-06T04:04:42.975Z,2.83
2023-04-06T04:07:10.204Z,3.50
2023-04-06T04:09:38.477Z,3.87
2023-04-06T04:12:05.720Z,2.67
2023-04-06T04:14:32.882Z,2.83
2023-04-06T04:16:59.841Z,3.37
2023-04-06T04:19:27.187Z,2.60
2023-04-06T04:21:57.912Z,2.07
2023-04-06T04:24:32.630Z,3.63
2023-04-06T04:27:02.015Z,3.63
2023-04-06T04:29:32.054Z,3.55
2023-04-06T04:32:04.081Z,3.80
2023-04-06T04:34:35.149Z,3.03
2023-04-06T04:39:44.342Z,3.53
2023-04-06T04:42:12.178Z,4.13
2023-04-06T04:44:45.525Z,3.33
2023-04-06T04:47:13.188Z,3.47
2023-04-06T04:49:44.921Z,3.47
2023-04-06T04:52:17.755Z,2.63
2023-04-06T04:55:00.466Z,3.08
2023-04-06T04:57:29.561Z,3.13
2023-04-06T04:59:58.020Z,4.17
2023-04-06T05:02:25.536Z,3.03
2023-04-06T05:05:11.232Z,2.40
2023-04-06T05:07:40.117Z,3.20
2023-04-06T05:10:12.604Z,4.45
2023-04-06T05:12:49.950Z,2.37
2023-04-06T05:15:20.688Z,3.00
2023-04-06T05:17:50.428Z,2.97
2023-04-06T05:20:22.268Z,3.15
2023-04-06T05:22:51.631Z,3.63
2023-04-06T05:25:18.869Z,3.63
2023-04-06T05:27:49.131Z,3.27
2023-04-06T05:30:27.641Z,2.47
2023-04-06T05:32:55.334Z,2.00
2023-04-06T05:35:24.774Z,4.23
2023-04-06T05:37:56.352Z,3.75
2023-04-06T05:40:26.363Z,5.20
2023-04-06T05:42:53.782Z,4.28
2023-04-06T05:45:22.325Z,3.63
2023-04-06T05:47:58.843Z,3.22
2023-04-06T05:50:29.858Z,3.43
2023-04-06T05:52:58.109Z,3.27
2023-04-06T05:55:30.561Z,2.43
2023-04-06T05:58:10.970Z,3.30
2023-04-06T06:00:38.125Z,3.50
2023-04-06T06:03:09.637Z,3.20
2023-04-06T06:05:37.684Z,4.30
2023-04-06T06:08:41.713Z,3.35
2023-04-06T06:11:13.892Z,3.95
2023-04-06T06:13:40.930Z,3.25
2023-04-06T06:16:09.066Z,5.07
2023-04-06T06:18:42.112Z,3.57
2023-04-06T06:21:09.423Z,7.20
2023-04-06T06:23:36.475Z,5.18
2023-04-06T06:26:04.349Z,4.00
2023-04-06T06:28:32.268Z,5.90
2023-04-06T06:31:00.176Z,7.60
2023-04-06T06:33:28.505Z,5.32
2023-04-06T06:35:57.209Z,4.50
2023-04-06T06:38:24.422Z,4.63
2023-04-06T06:40:52.216Z,4.40
2023-04-06T06:43:20.637Z,3.88
2023-04-06T06:46:00.337Z,4.90
2023-04-06T06:48:29.288Z,4.93
2023-04-06T06:50:56.484Z,4.43
2023-04-06T06:53:24.662Z,4.22
2023-04-06T06:55:51.835Z,3.92
2023-04-06T06:58:22.011Z,4.93
2023-04-06T07:00:49.657Z,5.90
2023-04-06T07:03:17.269Z,5.53
2023-04-06T07:05:54.449Z,4.43
2023-04-06T07:08:24.119Z,5.32
2023-04-06T07:10:59.325Z,5.53
2023-04-06T07:13:28.315Z,4.78
2023-04-06T07:15:58.009Z,4.18
2023-04-06T07:18:25.084Z,3.60
2023-04-06T07:20:52.426Z,5.80
2023-04-06T07:23:19.974Z,4.05
2023-04-06T07:25:47.276Z,4.55
2023-04-06T07:28:14.325Z,4.53
2023-04-06T07:30:42.399Z,6.35
2023-04-06T07:33:11.279Z,4.03
2023-04-06T07:35:38.877Z,6.43
2023-04-06T07:38:07.227Z,5.28
2023-04-06T07:40:35.812Z,5.25
2023-04-06T07:43:03.837Z,3.63
2023-04-06T07:45:32.434Z,4.47
2023-04-06T07:48:01.025Z,5.07
2023-04-06T07:50:29.073Z,5.40
2023-04-06T07:52:57.266Z,5.45
2023-04-06T07:55:24.563Z,4.20
2023-04-06T07:57:51.920Z,5.57
2023-04-06T08:00:19.190Z,4.80
2023-04-06T08:02:46.377Z,6.18
2023-04-06T08:05:14.635Z,5.57
2023-04-06T08:07:42.695Z,4.47
2023-04-06T08:10:10.518Z,5.20
2023-04-06T08:12:37.512Z,5.80
2023-04-06T08:15:05.007Z,5.43
2023-04-06T08:17:35.003Z,5.60
2023-04-06T08:20:04.486Z,6.97
2023-04-06T08:22:31.610Z,5.85
2023-04-06T08:24:58.733Z,5.72
2023-04-06T08:27:25.983Z,6.15
2023-04-06T08:29:53.192Z,6.80
2023-04-06T08:32:20.538Z,5.78
2023-04-06T08:34:47.982Z,4.78
2023-04-06T08:37:15.455Z,5.00
2023-04-06T08:39:42.606Z,4.65
2023-04-06T08:42:17.584Z,4.93
2023-04-06T08:44:48.350Z,5.00
2023-04-06T08:47:15.562Z,6.45
2023-04-06T08:49:45.119Z,5.25
2023-04-06T08:52:12.541Z,6.72
2023-04-06T08:54:40.352Z,7.00
2023-04-06T08:57:08.456Z,6.47
2023-04-06T08:59:36.408Z,6.43
2023-04-06T09:02:06.537Z,9.32
2023-04-06T09:04:35.941Z,6.00
2023-04-06T09:07:03.124Z,6.97
2023-04-06T09:09:30.401Z,9.68
2023-04-06T09:12:03.118Z,8.32
2023-04-06T09:14:38.545Z,7.35
2023-04-06T09:17:06.571Z,6.95
2023-04-06T09:19:33.798Z,7.55
2023-04-06T09:22:08.694Z,6.57
2023-04-06T09:24:50.637Z,7.05
2023-04-06T09:27:18.415Z,7.97
2023-04-06T09:29:45.999Z,8.90
2023-04-06T09:32:17.508Z,8.93
2023-04-06T09:34:44.594Z,6.47
2023-04-06T09:37:18.945Z,6.68
2023-04-06T09:39:47.034Z,6.57
2023-04-06T09:42:26.594Z,5.45
2023-04-06T09:44:53.761Z,7.43
2023-04-06T09:47:21.692Z,5.90
2023-04-06T09:49:54.759Z,5.43
2023-04-06T09:52:24.223Z,4.63
2023-04-06T09:54:52.116Z,5.53
2023-04-06T09:57:49.775Z,5.65
2023-04-06T10:00:21.780Z,5.63
2023-04-06T10:02:56.373Z,5.88
2023-04-06T10:05:41.592Z,4.72
2023-04-06T10:08:11.147Z,4.88
2023-04-06T10:10:38.967Z,8.40
2023-04-06T10:13:06.521Z,9.80
2023-04-06T10:15:34.502Z,9.60
2023-04-06T10:18:03.148Z,10.13
2023-04-06T10:20:55.446Z,12.32
2023-04-06T10:23:37.268Z,14.02
2023-04-06T10:26:04.793Z,13.88
2023-04-06T10:28:34.367Z,14.38
2023-04-06T10:31:03.468Z,15.65
2023-04-06T10:33:30.658Z,13.20
2023-04-06T10:35:57.752Z,16.10
2023-04-06T10:38:41.359Z,12.57
2023-04-06T10:41:11.565Z,15.13
2023-04-06T10:43:40.756Z,15.45
2023-04-06T10:46:09.359Z,11.65
2023-04-06T10:48:43.490Z,13.70
2023-04-06T10:51:15.611Z,17.25
2023-04-06T10:53:47.773Z,12.30
2023-04-06T10:56:16.718Z,16.33
2023-04-06T10:58:52.738Z,16.85
2023-04-06T11:01:22.336Z,13.88
2023-04-06T11:03:51.296Z,13.75
2023-04-06T11:06:26.442Z,13.27
2023-04-06T11:08:54.389Z,15.15
2023-04-06T11:11:23.752Z,14.68
2023-04-06T11:13:55.187Z,14.77
2023-04-06T11:16:30.810Z,13.47
2023-04-06T11:18:59.316Z,10.70
2023-04-06T11:21:44.659Z,11.10
2023-04-06T11:24:13.943Z,12.50
2023-04-06T11:26:56.696Z,9.13
2023-04-06T11:29:32.549Z,11.40
2023-04-06T11:32:01.049Z,10.77
2023-04-06T11:34:31.320Z,11.88
2023-04-06T11:37:03.634Z,14.68
2023-04-06T11:42:04.049Z,15.05
2023-04-06T11:44:41.209Z,11.63
2023-04-06T11:47:10.447Z,11.05
2023-04-06T11:49:48.668Z,10.30
2023-04-06T11:52:24.936Z,9.65
2023-04-06T11:54:53.822Z,9.82
2023-04-06T11:57:24.089Z,9.73
2023-04-06T11:59:51.098Z,11.18
2023-04-06T12:02:19.041Z,10.95
2023-04-06T12:04:46.897Z,9.95
2023-04-06T12:07:14.064Z,9.50
2023-04-06T12:09:41.192Z,10.23
2023-04-06T12:12:08.258Z,9.32
2023-04-06T12:14:35.426Z,9.65
2023-04-06T12:17:02.820Z,7.70
2023-04-06T12:19:31.067Z,8.82
2023-04-06T12:21:59.107Z,8.07
2023-04-06T12:24:26.346Z,8.38
2023-04-06T12:27:02.671Z,8.70
2023-04-06T12:29:33.895Z,8.73
2023-04-06T12:32:02.542Z,9.23
2023-04-06T12:34:29.808Z,8.77
2023-04-06T12:36:58.579Z,7.75
2023-04-06T12:39:26.514Z,9.98
2023-04-06T12:41:54.123Z,11.55
2023-04-06T12:44:21.328Z,7.72
2023-04-06T12:46:48.562Z,6.82
2023-04-06T12:49:17.889Z,8.05
2023-04-06T12:51:45.130Z,7.43
2023-04-06T12:54:13.124Z,6.40
2023-04-06T12:56:40.605Z,5.75
2023-04-06T12:59:12.384Z,4.82
2023-04-06T13:01:39.741Z,5.53
2023-04-06T13:04:06.868Z,4.75
2023-04-06T13:06:34.230Z,5.43
2023-04-06T13:09:01.229Z,6.15
2023-04-06T13:11:28.926Z,6.28
2023-04-06T13:13:56.414Z,6.22
2023-04-06T13:16:23.510Z,4.65
2023-04-06T13:18:51.285Z,5.70
2023-04-06T13:21:18.587Z,4.82
2023-04-06T13:23:45.774Z,3.60
2023-04-06T13:26:14.613Z,4.60
2023-04-06T13:28:42.247Z,4.13
2023-04-06T13:31:10.812Z,6.10
2023-04-06T13:33:38.356Z,6.80
2023-04-06T13:36:07.163Z,4.95
2023-04-06T13:38:34.833Z,3.78
2023-04-06T13:41:01.969Z,4.93
2023-04-06T13:43:31.555Z,5.82
2023-04-06T13:46:01.821Z,4.38
2023-04-06T13:48:29.014Z,4.80
2023-04-06T13:50:56.268Z,4.03
2023-04-06T13:53:23.400Z,4.10
2023-04-06T13:55:55.545Z,4.35
2023-04-06T13:58:33.476Z,4.00
2023-04-06T14:01:08.950Z,4.25
2023-04-06T14:03:36.798Z,4.18
2023-04-06T14:08:44.758Z,5.28
2023-04-06T14:11:18.041Z,4.95
2023-04-06T14:13:45.378Z,4.03
2023-04-06T14:16:12.624Z,4.07
2023-04-06T14:18:39.850Z,3.30
2023-04-06T14:21:08.182Z,7.30
2023-04-06T14:23:38.965Z,4.60
2023-04-06T14:26:13.181Z,5.07
2023-04-06T14:28:41.010Z,5.80
2023-04-06T14:31:14.373Z,4.97
2023-04-06T14:33:42.638Z,4.72
2023-04-06T14:36:10.714Z,3.75
2023-04-06T14:38:38.582Z,5.05
2023-04-06T14:41:05.887Z,4.30
2023-04-06T14:43:35.462Z,4.07
2023-04-06T14:46:03.682Z,4.10
2023-04-06T14:48:31.496Z,5.57
2023-04-06T14:50:59.189Z,4.15
2023-04-06T14:53:29.349Z,4.25
2023-04-06T14:55:57.642Z,5.43
2023-04-06T14:58:26.466Z,4.03
2023-04-06T15:01:01.119Z,3.90
2023-04-06T15:03:29.411Z,4.40
2023-04-06T15:06:00.242Z,4.13
2023-04-06T15:08:28.732Z,3.42
2023-04-06T15:11:00.392Z,4.15
2023-04-06T15:13:30.606Z,3.88
2023-04-06T15:15:59.198Z,4.60
2023-04-06T15:18:27.728Z,3.60
2023-04-06T15:20:55.850Z,3.80
2023-04-06T15:23:23.065Z,4.78
2023-04-06T15:25:50.768Z,4.80
2023-04-06T15:28:18.123Z,4.03
2023-04-06T15:30:45.535Z,4.05
2023-04-06T15:33:17.038Z,3.78
2023-04-06T15:35:47.637Z,4.80
2023-04-06T15:38:17.014Z,3.80
2023-04-06T15:40:46.256Z,3.42
2023-04-06T15:43:14.419Z,4.03
2023-04-06T15:45:41.882Z,4.53
2023-04-06T15:48:13.806Z,3.78
2023-04-06T15:50:43.292Z,4.25
2023-04-06T15:53:10.392Z,3.33
2023-04-06T15:55:42.129Z,4.20
2023-04-06T15:58:22.749Z,3.92
2023-04-06T16:00:50.770Z,4.00
2023-04-06T16:03:19.259Z,3.10
2023-04-06T16:08:21.184Z,4.18
2023-04-06T16:10:49.748Z,5.07
2023-04-06T16:13:21.568Z,4.57
2023-04-06T16:15:52.210Z,5.45
2023-04-06T16:18:19.990Z,5.40
2023-04-06T16:20:47.301Z,6.15
2023-04-06T16:23:14.546Z,5.28
2023-04-06T16:34:02.870Z,6.03
2023-04-06T16:37:24.452Z,7.90
2023-04-06T16:40:10.767Z,7.07
2023-04-06T16:42:38.275Z,5.85
2023-04-06T16:45:06.128Z,6.93
2023-04-06T16:47:33.506Z,6.25
2023-04-06T16:50:05.967Z,5.80
2023-04-06T16:52:37.341Z,6.68
2023-04-06T16:55:04.644Z,6.15
2023-04-06T16:57:31.662Z,5.35
2023-04-06T16:59:58.989Z,4.55
2023-04-06T17:02:26.570Z,5.82
2023-04-06T17:04:53.872Z,6.78
2023-04-06T17:07:25.842Z,5.57
2023-04-06T17:09:52.933Z,5.47
2023-04-06T17:15:35.465Z,6.95
2023-04-06T17:18:40.265Z,6.30
2023-04-06T17:24:02.493Z,6.20
2023-04-06T17:26:29.595Z,5.72
2023-04-06T17:28:56.889Z,5.25
2023-04-06T17:31:24.104Z,5.30
2023-04-06T17:33:51.431Z,4.88
2023-04-06T17:36:20.685Z,4.72
2023-04-06T17:38:49.010Z,3.92
2023-04-06T17:41:22.748Z,5.30
2023-04-06T17:43:51.313Z,4.93
2023-04-06T17:46:21.913Z,3.88
2023-04-06T17:48:53.616Z,5.07
2023-04-06T17:55:28.613Z,4.70
2023-04-06T17:58:10.897Z,5.97
2023-04-06T18:00:56.129Z,8.88
2023-04-06T18:03:46.347Z,6.60
2023-04-06T18:06:17.129Z,5.13
2023-04-06T18:10:08.796Z,5.10
2023-04-06T18:12:36.431Z,4.38
2023-04-06T18:15:04.096Z,5.38
2023-04-06T18:17:38.563Z,5.45
2023-04-06T18:24:23.143Z,3.45
2023-04-06T18:27:18.868Z,4.45
2023-04-06T18:29:53.497Z,4.45
2023-04-06T18:32:21.101Z,6.05
2023-04-06T18:34:48.523Z,4.63
2023-04-06T18:37:41.161Z,4.75
2023-04-06T18:43:19.498Z,4.03
2023-04-06T18:46:02.860Z,3.88
2023-04-06T18:49:21.737Z,3.97
2023-04-06T18:53:02.827Z,3.33
2023-04-06T18:59:50.599Z,4.65
2023-04-06T19:03:31.616Z,2.95
2023-04-06T19:15:18.316Z,3.78
2023-04-06T19:22:38.177Z,3.20
2023-04-06T19:33:55.626Z,2.78
2023-04-06T19:37:06.916Z,2.88
2023-04-06T19:39:41.557Z,3.13
2023-04-06T19:47:07.328Z,4.32
2023-04-06T19:49:54.387Z,3.00
2023-04-06T19:52:40.084Z,2.85
2023-04-06T20:00:20.718Z,3.78
2023-04-06T20:02:48.022Z,2.88
2023-04-06T20:05:18.213Z,2.45
2023-04-06T20:17:13.281Z,2.25
2023-04-06T20:23:16.932Z,1.80
2023-04-06T20:27:04.738Z,1.85
2023-04-06T20:30:06.036Z,2.45
2023-04-06T20:32:45.858Z,2.53
2023-04-06T20:35:13.182Z,2.00
2023-04-06T20:37:40.158Z,5.00
2023-04-06T20:40:12.275Z,2.30
2023-04-06T20:42:42.957Z,2.08
2023-04-06T20:45:48.476Z,2.05
2023-04-06T20:49:04.461Z,2.10
2023-04-06T20:53:24.412Z,2.25
2023-04-06T20:55:52.910Z,1.77
2023-04-06T21:01:55.150Z,2.13
2023-04-06T21:04:40.925Z,2.35
2023-04-06T21:07:15.870Z,2.40
2023-04-06T21:09:56.957Z,2.40
2023-04-06T21:12:29.202Z,2.85
2023-04-06T21:14:56.681Z,1.92
2023-04-06T21:17:30.508Z,2.30
2023-04-06T21:20:06.974Z,2.08
2023-04-06T21:22:34.324Z,1.92
2023-04-06T21:25:04.437Z,2.20
2023-04-06T21:27:34.251Z,2.72
2023-04-06T21:30:01.682Z,2.28
2023-04-06T21:32:29.228Z,2.50
2023-04-06T21:34:59.335Z,2.67
2023-04-06T21:37:29.654Z,2.05
2023-04-06T21:39:57.686Z,2.08
2023-04-06T21:42:25.397Z,2.50
2023-04-06T21:44:52.580Z,2.40
2023-04-06T21:47:19.698Z,2.83
2023-04-06T21:54:01.058Z,2.00
2023-04-06T22:01:11.809Z,1.73
2023-04-06T22:22:10.381Z,1.75
2023-04-06T22:24:53.210Z,2.08
2023-04-06T22:27:49.589Z,1.75
